createdAt,value
2018-01-16T07:05:25.235Z,3.64
2018-01-16T07:05:43.864Z,3.67
2018-01-16T07:06:02.388Z,3.60
2018-01-16T07:06:20.651Z,3.40
2018-01-16T07:06:39.252Z,3.72
2018-01-16T07:06:57.849Z,3.58
2018-01-16T07:07:16.488Z,3.65
2018-01-16T07:07:34.800Z,3.25
2018-01-16T07:07:53.448Z,3.37
2018-01-16T07:08:11.701Z,3.60
2018-01-16T07:08:30.255Z,3.97
2018-01-16T07:08:48.811Z,4.20
2018-01-16T07:09:07.371Z,4.30
2018-01-16T07:09:25.610Z,4.32
2018-01-16T07:09:44.227Z,3.70
2018-01-16T07:10:02.805Z,3.60
2018-01-16T07:10:21.364Z,3.80
2018-01-16T07:10:39.654Z,3.97
2018-01-16T07:10:58.219Z,3.92
2018-01-16T07:11:16.806Z,4.00
2018-01-16T07:11:35.391Z,3.90
2018-01-16T07:11:54.147Z,3.97
2018-01-16T07:12:12.668Z,3.80
2018-01-16T07:12:31.216Z,3.80
2018-01-16T07:12:50.005Z,3.80
2018-01-16T07:13:08.557Z,3.67
2018-01-16T07:13:27.261Z,3.87
2018-01-16T07:13:45.844Z,4.10
2018-01-16T07:14:04.432Z,4.30
2018-01-16T07:14:22.661Z,3.80
2018-01-16T07:14:41.351Z,3.40
2018-01-16T07:14:59.629Z,3.10
2018-01-16T07:15:18.217Z,3.30
2018-01-16T07:15:36.834Z,4.00
2018-01-16T07:15:55.446Z,3.92
2018-01-16T07:16:13.971Z,4.05
2018-01-16T07:16:32.509Z,3.55
2018-01-16T07:16:51.046Z,3.85
2018-01-16T07:17:10.528Z,3.80
2018-01-16T07:17:29.053Z,3.87
2018-01-16T07:17:47.571Z,3.80
2018-01-16T07:18:06.131Z,3.47
2018-01-16T07:18:24.669Z,3.50
2018-01-16T07:18:43.204Z,3.60
2018-01-16T07:19:01.440Z,4.03
2018-01-16T07:19:19.971Z,3.95
2018-01-16T07:19:38.514Z,3.60
2018-01-16T07:19:56.924Z,3.35
2018-01-16T07:20:15.459Z,3.40
2018-01-16T07:20:34.020Z,3.85
2018-01-16T07:20:52.573Z,3.90
2018-01-16T07:21:11.182Z,3.72
2018-01-16T07:21:29.802Z,3.72
2018-01-16T07:21:48.336Z,3.60
2018-01-16T07:22:06.927Z,3.60
2018-01-16T07:22:25.512Z,3.83
2018-01-16T07:22:44.042Z,4.10
2018-01-16T07:23:02.353Z,4.20
2018-01-16T07:23:20.885Z,4.82
2018-01-16T07:23:39.399Z,4.70
2018-01-16T07:23:57.735Z,4.47
2018-01-16T07:24:16.061Z,4.35
2018-01-16T07:24:34.140Z,4.60
2018-01-16T07:24:52.663Z,4.70
2018-01-16T07:25:11.322Z,4.70
2018-01-16T07:25:29.867Z,4.30
2018-01-16T07:25:48.395Z,4.30
2018-01-16T07:26:07.005Z,4.07
2018-01-16T07:26:25.820Z,4.35
2018-01-16T07:26:43.915Z,4.18
2018-01-16T07:27:02.153Z,5.00
2018-01-16T07:27:20.728Z,4.43
2018-01-16T07:27:39.284Z,4.72
2018-01-16T07:27:57.813Z,4.50
2018-01-16T07:28:16.157Z,4.60
2018-01-16T07:28:34.742Z,4.37
2018-01-16T07:28:53.420Z,4.25
2018-01-16T07:29:11.815Z,4.03
2018-01-16T07:29:31.164Z,3.90
2018-01-16T07:29:49.731Z,4.05
2018-01-16T07:30:07.999Z,4.50
2018-01-16T07:30:26.566Z,4.75
2018-01-16T07:30:45.135Z,5.28
2018-01-16T07:31:03.702Z,5.40
2018-01-16T07:31:21.939Z,5.50
2018-01-16T07:31:40.499Z,5.90
2018-01-16T07:31:58.789Z,5.25
2018-01-16T07:32:17.079Z,5.20
2018-01-16T07:32:35.790Z,4.50
2018-01-16T07:32:54.339Z,4.60
2018-01-16T07:33:12.900Z,4.35
2018-01-16T07:33:31.446Z,4.53
2018-01-16T07:33:50.060Z,4.70
2018-01-16T07:34:08.651Z,4.62
2018-01-16T07:34:27.012Z,4.70
2018-01-16T07:34:45.553Z,4.18
2018-01-16T07:35:03.867Z,4.40
2018-01-16T07:35:22.401Z,4.10
2018-01-16T07:35:40.954Z,4.40
2018-01-16T07:35:59.600Z,4.03
2018-01-16T07:36:18.158Z,3.92
2018-01-16T07:36:36.907Z,3.67
2018-01-16T07:36:55.484Z,3.62
2018-01-16T07:37:13.801Z,3.95
2018-01-16T07:37:32.342Z,4.07
2018-01-16T07:37:51.163Z,4.47
2018-01-16T07:38:09.734Z,4.72
2018-01-16T07:38:28.271Z,4.87
2018-01-16T07:38:46.552Z,5.15
2018-01-16T07:39:04.628Z,4.60
2018-01-16T07:39:23.176Z,4.70
2018-01-16T07:39:41.723Z,4.40
2018-01-16T07:40:00.386Z,4.50
2018-01-16T07:40:19.068Z,4.22
2018-01-16T07:40:37.608Z,4.47
2018-01-16T07:40:56.190Z,4.20
2018-01-16T07:41:14.506Z,4.00
2018-01-16T07:41:33.138Z,3.55
2018-01-16T07:41:51.379Z,3.70
2018-01-16T07:42:09.965Z,3.87
2018-01-16T07:42:28.509Z,4.30
2018-01-16T07:42:47.071Z,4.10
2018-01-16T07:43:05.317Z,4.20
2018-01-16T07:43:23.921Z,3.70
2018-01-16T07:43:42.207Z,3.90
2018-01-16T07:44:00.747Z,3.70
2018-01-16T07:44:19.323Z,3.75
2018-01-16T07:44:37.854Z,3.97
2018-01-16T07:44:56.389Z,3.70
2018-01-16T07:45:14.934Z,3.80
2018-01-16T07:45:33.199Z,3.92
2018-01-16T07:45:51.752Z,4.07
2018-01-16T07:46:10.318Z,4.30
2018-01-16T07:46:28.857Z,4.30
2018-01-16T07:46:47.084Z,4.40
2018-01-16T07:47:05.632Z,4.40
2018-01-16T07:47:24.224Z,4.40
2018-01-16T07:47:42.744Z,4.47
2018-01-16T07:48:01.568Z,4.40
2018-01-16T07:48:20.122Z,4.37
2018-01-16T07:48:38.697Z,4.18
2018-01-16T07:48:57.527Z,4.00
2018-01-16T07:49:16.078Z,4.28
2018-01-16T07:49:34.691Z,4.50
2018-01-16T07:49:52.922Z,4.68
2018-01-16T07:50:11.541Z,4.20
2018-01-16T07:50:29.931Z,3.97
2018-01-16T07:50:48.524Z,4.07
2018-01-16T07:51:06.783Z,4.18
2018-01-16T07:51:25.319Z,4.50
2018-01-16T07:51:43.921Z,4.60
2018-01-16T07:52:04.306Z,4.82
2018-01-16T07:52:22.644Z,4.37
2018-01-16T07:52:41.266Z,4.10
2018-01-16T07:52:59.815Z,3.92
2018-01-16T07:53:18.396Z,4.10
2018-01-16T07:53:37.074Z,4.20
2018-01-16T07:53:55.590Z,3.97
2018-01-16T07:54:14.107Z,3.90
2018-01-16T07:54:32.707Z,4.00
2018-01-16T07:54:51.347Z,3.80
2018-01-16T07:55:09.585Z,4.00
2018-01-16T07:55:28.111Z,4.15
2018-01-16T07:55:46.634Z,4.10
2018-01-16T07:56:05.163Z,4.03
2018-01-16T07:56:23.773Z,4.10
2018-01-16T07:56:42.317Z,4.22
2018-01-16T07:57:00.562Z,4.10
2018-01-16T07:57:19.115Z,4.18
2018-01-16T07:57:37.364Z,4.53
2018-01-16T07:57:57.068Z,4.70
2018-01-16T07:58:15.349Z,5.00
2018-01-16T07:58:33.867Z,4.40
2018-01-16T07:58:52.419Z,4.50
2018-01-16T07:59:10.950Z,4.12
2018-01-16T07:59:29.515Z,4.20
2018-01-16T07:59:48.091Z,4.05
2018-01-16T08:00:06.322Z,4.70
2018-01-16T08:00:24.915Z,4.78
2018-01-16T08:00:43.194Z,4.70
2018-01-16T08:01:01.776Z,4.50
2018-01-16T08:01:20.315Z,4.50
2018-01-16T08:01:38.849Z,4.60
2018-01-16T08:01:57.084Z,4.87
2018-01-16T08:02:15.703Z,4.43
2018-01-16T08:02:34.223Z,4.90
2018-01-16T08:02:52.749Z,4.75
2018-01-16T08:03:11.016Z,5.10
2018-01-16T08:03:29.592Z,4.65
2018-01-16T08:03:48.153Z,4.60
2018-01-16T08:04:06.827Z,4.43
2018-01-16T08:04:25.054Z,4.25
2018-01-16T08:04:43.617Z,4.00
2018-01-16T08:05:02.210Z,3.75
2018-01-16T08:05:20.783Z,3.87
2018-01-16T08:05:39.075Z,4.05
2018-01-16T08:05:57.623Z,4.10
2018-01-16T08:06:15.872Z,4.15
2018-01-16T08:06:34.453Z,4.25
2018-01-16T08:06:53.011Z,4.28
2018-01-16T08:07:12.574Z,4.30
2018-01-16T08:07:30.835Z,4.00
2018-01-16T08:07:49.631Z,4.07
2018-01-16T08:08:07.863Z,4.15
2018-01-16T08:08:26.483Z,4.10
2018-01-16T08:08:44.724Z,4.00
2018-01-16T08:09:03.111Z,3.87
2018-01-16T08:09:21.640Z,3.92
2018-01-16T08:09:40.199Z,3.92
2018-01-16T08:09:58.807Z,4.00
2018-01-16T08:10:17.348Z,4.12
2018-01-16T08:10:35.597Z,4.10
2018-01-16T08:10:54.138Z,3.90
2018-01-16T08:11:12.662Z,3.90
2018-01-16T08:11:31.202Z,4.40
2018-01-16T08:11:49.716Z,4.40
2018-01-16T08:12:08.247Z,4.57
2018-01-16T08:12:26.648Z,4.60
2018-01-16T08:12:45.223Z,4.80
2018-01-16T08:13:03.536Z,5.07
2018-01-16T08:13:22.171Z,5.18
2018-01-16T08:13:41.027Z,5.50
2018-01-16T08:13:59.552Z,4.82
2018-01-16T08:14:18.094Z,4.40
2018-01-16T08:14:36.425Z,3.50
2018-01-16T08:14:54.980Z,3.85
2018-01-16T08:15:13.539Z,3.80
2018-01-16T08:15:32.088Z,3.83
2018-01-16T08:15:50.311Z,3.80
2018-01-16T08:16:08.843Z,3.83
2018-01-16T08:16:27.390Z,3.90
2018-01-16T08:16:45.963Z,4.20
2018-01-16T08:17:04.792Z,4.28
2018-01-16T08:17:23.344Z,4.22
2018-01-16T08:17:41.923Z,3.97
2018-01-16T08:18:00.191Z,4.03
2018-01-16T08:18:18.739Z,4.60
2018-01-16T08:18:37.311Z,4.55
2018-01-16T08:18:56.037Z,4.60
2018-01-16T08:19:14.577Z,4.37
2018-01-16T08:19:33.170Z,4.40
2018-01-16T08:19:51.704Z,4.03
2018-01-16T08:20:09.995Z,3.90
2018-01-16T08:20:28.524Z,3.58
2018-01-16T08:20:47.151Z,3.40
2018-01-16T08:21:05.717Z,3.30
2018-01-16T08:21:24.031Z,3.30
2018-01-16T08:21:42.735Z,3.22
2018-01-16T08:22:01.039Z,3.47
2018-01-16T08:22:19.627Z,3.67
2018-01-16T08:22:37.922Z,3.80
2018-01-16T08:22:56.704Z,3.62
2018-01-16T08:23:15.708Z,3.80
2018-01-16T08:23:34.295Z,4.05
2018-01-16T08:23:52.823Z,4.15
2018-01-16T08:24:11.391Z,4.25
2018-01-16T08:24:29.955Z,3.80
2018-01-16T08:24:48.492Z,3.60
2018-01-16T08:25:06.737Z,3.25
2018-01-16T08:25:25.286Z,3.15
2018-01-16T08:25:43.813Z,3.10
2018-01-16T08:26:02.355Z,3.15
2018-01-16T08:26:20.644Z,3.20
2018-01-16T08:26:39.228Z,3.33
2018-01-16T08:26:57.841Z,3.85
2018-01-16T08:27:16.591Z,3.90
2018-01-16T08:27:35.190Z,3.95
2018-01-16T08:27:53.746Z,3.72
2018-01-16T08:28:12.346Z,3.45
2018-01-16T08:28:45.597Z,3.60
2018-01-16T08:29:19.207Z,3.30
2018-01-16T08:30:20.723Z,3.80
2018-01-16T08:30:54.239Z,4.25
2018-01-16T08:31:27.795Z,3.67
2018-01-16T08:32:01.313Z,2.70
2018-01-16T08:32:34.944Z,3.75
2018-01-16T08:33:08.529Z,3.10
2018-01-16T08:33:42.130Z,3.20
2018-01-16T08:34:15.655Z,3.92
2018-01-16T08:34:49.007Z,4.12
2018-01-16T08:35:23.284Z,2.97
2018-01-16T08:35:56.852Z,3.25
2018-01-16T08:36:30.433Z,3.05
2018-01-16T08:37:04.056Z,5.00
2018-01-16T08:37:37.593Z,4.40
2018-01-16T08:38:11.117Z,3.87
2018-01-16T08:38:44.654Z,3.62
2018-01-16T08:39:18.223Z,4.45
2018-01-16T08:39:51.762Z,4.05
2018-01-16T08:40:25.396Z,4.00
2018-01-16T08:40:59.023Z,3.80
2018-01-16T08:41:32.556Z,4.03
2018-01-16T08:42:06.139Z,3.20
2018-01-16T08:42:39.738Z,3.08
2018-01-16T08:43:13.284Z,3.45
2018-01-16T08:43:46.384Z,3.67
2018-01-16T08:44:19.930Z,3.83
2018-01-16T08:44:53.607Z,3.17
2018-01-16T08:45:27.128Z,4.00
2018-01-16T08:46:01.445Z,4.37
2018-01-16T08:46:34.983Z,4.35
2018-01-16T08:47:08.510Z,4.07
2018-01-16T08:47:42.167Z,4.07
2018-01-16T08:48:15.698Z,3.80
2018-01-16T08:48:49.293Z,3.72
2018-01-16T08:49:22.831Z,3.70
2018-01-16T08:49:56.478Z,3.45
2018-01-16T08:50:40.010Z,4.10
2018-01-16T09:04:13.652Z,3.10
2018-01-16T09:04:47.176Z,3.00
2018-01-16T09:05:20.763Z,3.03
2018-01-16T09:05:54.276Z,3.10
2018-01-16T09:06:27.801Z,3.55
2018-01-16T09:07:01.325Z,4.43
2018-01-16T09:07:34.903Z,2.78
2018-01-16T09:08:08.446Z,3.30
2018-01-16T09:08:41.983Z,4.05
2018-01-16T09:09:15.534Z,3.12
2018-01-16T09:09:49.067Z,4.03
2018-01-16T09:10:22.594Z,3.75
2018-01-16T09:10:56.115Z,3.97
2018-01-16T09:11:30.042Z,4.55
2018-01-16T09:12:03.584Z,3.78
2018-01-16T09:12:37.111Z,3.75
2018-01-16T09:13:10.701Z,3.15
2018-01-16T09:13:44.280Z,3.25
2018-01-16T09:14:17.834Z,3.45
2018-01-16T09:14:51.418Z,3.42
2018-01-16T09:15:24.940Z,3.65
2018-01-16T09:15:58.470Z,4.07
2018-01-16T09:16:32.027Z,3.65
2018-01-16T09:17:05.548Z,3.85
2018-01-16T09:17:39.075Z,4.10
2018-01-16T09:18:12.636Z,4.37
2018-01-16T09:18:46.196Z,4.87
2018-01-16T09:19:19.766Z,3.87
2018-01-16T09:19:53.282Z,3.22
2018-01-16T09:20:26.928Z,3.83
2018-01-16T09:21:00.454Z,4.10
2018-01-16T09:21:33.971Z,2.97
2018-01-16T09:22:07.563Z,3.00
2018-01-16T09:22:41.080Z,2.12
2018-01-16T09:23:14.649Z,1.75
2018-01-16T09:23:48.204Z,1.80
2018-01-16T09:24:21.790Z,1.60
2018-01-16T09:24:55.420Z,1.80
2018-01-16T09:25:29.031Z,1.92
2018-01-16T09:26:02.596Z,1.50
2018-01-16T09:26:36.132Z,1.70
2018-01-16T09:27:09.661Z,1.98
2018-01-16T09:27:43.198Z,1.70
2018-01-16T09:28:16.711Z,2.10
2018-01-16T09:28:50.231Z,1.60
2018-01-16T09:29:23.775Z,1.42
2018-01-16T09:29:57.318Z,1.80
2018-01-16T09:30:31.020Z,1.92
2018-01-16T09:31:04.545Z,2.20
2018-01-16T09:31:38.160Z,1.90
2018-01-16T09:32:11.848Z,1.58
2018-01-16T09:32:45.382Z,2.00
2018-01-16T09:33:18.889Z,1.30
2018-01-16T09:33:52.443Z,2.10
2018-01-16T09:34:26.334Z,2.40
2018-01-16T09:34:59.875Z,2.45
2018-01-16T09:35:33.401Z,1.80
2018-01-16T09:36:06.929Z,2.15
2018-01-16T09:36:40.444Z,2.35
2018-01-16T09:37:13.813Z,2.20
2018-01-16T09:37:47.355Z,1.90
2018-01-16T09:38:20.921Z,2.05
2018-01-16T09:38:54.470Z,2.20
2018-01-16T09:39:28.076Z,1.87
2018-01-16T09:40:01.629Z,1.90
2018-01-16T09:40:35.193Z,2.35
2018-01-16T09:41:08.771Z,2.30
2018-01-16T09:41:42.328Z,1.70
2018-01-16T09:42:16.014Z,2.05
2018-01-16T09:42:49.534Z,1.75
2018-01-16T09:43:23.051Z,1.98
2018-01-16T09:43:56.583Z,1.95
2018-01-16T09:44:30.125Z,2.10
2018-01-16T09:45:03.718Z,4.05
2018-01-16T09:45:37.068Z,2.20
2018-01-16T09:46:10.628Z,2.80
2018-01-16T09:46:44.323Z,2.35
2018-01-16T09:47:17.839Z,2.00
2018-01-16T09:47:51.377Z,2.60
2018-01-16T09:48:24.927Z,2.65
2018-01-16T09:48:58.522Z,3.10
2018-01-16T09:49:32.120Z,2.20
2018-01-16T09:50:05.644Z,1.90
2018-01-16T09:50:39.220Z,2.15
2018-01-16T09:51:12.744Z,2.70
2018-01-16T09:51:46.353Z,2.30
2018-01-16T09:52:19.972Z,2.22
2018-01-16T09:52:53.567Z,1.80
2018-01-16T09:53:27.075Z,1.85
2018-01-16T09:54:00.614Z,2.00
2018-01-16T09:54:34.232Z,1.95
2018-01-16T09:55:07.743Z,2.50
2018-01-16T09:55:41.260Z,2.40
2018-01-16T09:56:14.829Z,2.47
2018-01-16T09:56:48.455Z,2.08
2018-01-16T09:57:21.988Z,1.95
2018-01-16T09:57:56.399Z,1.70
2018-01-16T09:58:29.918Z,2.10
2018-01-16T09:59:03.506Z,1.70
2018-01-16T09:59:37.111Z,2.45
2018-01-16T10:00:10.400Z,1.80
2018-01-16T10:00:43.931Z,1.60
2018-01-16T10:01:17.444Z,1.20
2018-01-16T10:01:50.959Z,1.23
2018-01-16T10:02:24.546Z,0.98
2018-01-16T10:02:58.089Z,1.45
2018-01-16T10:03:31.665Z,1.42
2018-01-16T10:04:05.231Z,1.10
2018-01-16T10:04:38.787Z,1.30
2018-01-16T10:05:12.428Z,1.20
2018-01-16T10:05:45.941Z,2.95
2018-01-16T10:06:19.455Z,1.10
2018-01-16T10:06:53.018Z,1.60
2018-01-16T10:07:26.575Z,1.25
2018-01-16T10:08:00.113Z,1.10
2018-01-16T10:08:33.655Z,1.70
2018-01-16T10:09:07.939Z,1.17
2018-01-16T10:09:41.494Z,1.37
2018-01-16T10:10:15.061Z,1.30
2018-01-16T10:10:48.570Z,1.30
2018-01-16T10:11:22.091Z,1.37
2018-01-16T10:11:55.724Z,1.58
2018-01-16T10:12:29.242Z,1.60
2018-01-16T10:13:02.776Z,1.45
2018-01-16T10:13:36.332Z,1.30
2018-01-16T10:14:09.913Z,1.23
2018-01-16T10:14:43.551Z,1.77
2018-01-16T10:15:17.107Z,1.30
2018-01-16T10:15:50.627Z,1.20
2018-01-16T10:16:24.151Z,1.00
2018-01-16T10:16:57.658Z,0.90
2018-01-16T10:17:31.187Z,2.17
2018-01-16T10:18:04.703Z,0.98
2018-01-16T10:18:38.268Z,1.37
2018-01-16T10:19:11.857Z,1.48
2018-01-16T10:19:45.416Z,1.25
2018-01-16T10:20:18.935Z,1.23
2018-01-16T10:20:52.476Z,1.77
2018-01-16T10:21:26.017Z,1.85
2018-01-16T10:21:59.565Z,1.10
2018-01-16T10:22:33.085Z,1.65
2018-01-16T10:23:06.661Z,1.33
2018-01-16T10:23:40.191Z,1.02
2018-01-16T10:24:13.716Z,1.27
2018-01-16T10:24:47.300Z,1.20
2018-01-16T10:25:20.993Z,1.70
2018-01-16T10:25:54.527Z,1.25
2018-01-16T10:26:28.075Z,1.27
2018-01-16T10:27:02.459Z,1.40
2018-01-16T10:27:35.987Z,1.60
2018-01-16T10:28:09.492Z,1.60
2018-01-16T10:28:43.008Z,1.15
2018-01-16T10:29:16.586Z,1.25
2018-01-16T10:29:50.160Z,1.60
2018-01-16T10:30:23.833Z,1.70
2018-01-16T10:30:57.600Z,1.70
2018-01-16T10:31:31.145Z,1.50
2018-01-16T10:32:04.726Z,1.10
2018-01-16T10:32:38.296Z,1.55
2018-01-16T10:33:11.860Z,1.50
2018-01-16T10:33:45.640Z,1.83
2018-01-16T10:34:20.099Z,1.62
2018-01-16T10:34:53.658Z,2.25
2018-01-16T10:35:28.120Z,1.80
2018-01-16T10:36:02.334Z,1.50
2018-01-16T10:36:35.925Z,1.58
2018-01-16T10:37:09.503Z,1.40
2018-01-16T10:37:43.016Z,1.70
2018-01-16T10:38:17.333Z,1.52
2018-01-16T10:38:50.873Z,1.60
2018-01-16T10:39:24.475Z,1.60
2018-01-16T10:39:58.065Z,1.30
2018-01-16T10:40:31.572Z,1.27
2018-01-16T10:41:06.263Z,1.10
2018-01-16T10:41:39.792Z,1.60
2018-01-16T10:42:13.347Z,1.75
2018-01-16T10:42:46.904Z,1.92
2018-01-16T10:43:20.437Z,2.10
2018-01-16T10:43:54.055Z,1.42
2018-01-16T10:44:27.587Z,1.83
2018-01-16T10:45:01.959Z,1.98
2018-01-16T10:45:35.511Z,2.97
2018-01-16T10:46:09.019Z,2.22
2018-01-16T10:46:42.568Z,2.40
2018-01-16T10:47:16.126Z,2.65
2018-01-16T10:47:49.648Z,1.60
2018-01-16T10:48:23.162Z,1.48
2018-01-16T10:48:56.686Z,2.00
2018-01-16T10:49:30.279Z,2.53
2018-01-16T10:50:03.836Z,2.03
2018-01-16T10:50:38.413Z,1.60
2018-01-16T10:51:11.981Z,1.70
2018-01-16T10:51:46.091Z,1.73
2018-01-16T10:52:19.627Z,1.90
2018-01-16T10:52:53.226Z,1.87
2018-01-16T10:53:26.761Z,1.80
2018-01-16T10:54:00.318Z,2.30
2018-01-16T10:54:33.868Z,1.98
2018-01-16T10:55:07.419Z,2.12
2018-01-16T10:55:41.872Z,7.57
2018-01-16T10:56:15.412Z,8.55
2018-01-16T10:56:48.988Z,4.05
2018-01-16T10:57:22.504Z,2.72
2018-01-16T10:57:56.007Z,5.82
2018-01-16T10:58:29.530Z,4.47
2018-01-16T10:59:03.115Z,8.88
2018-01-16T10:59:36.737Z,1.90
2018-01-16T11:00:10.344Z,2.30
2018-01-16T11:00:43.871Z,2.33
2018-01-16T11:01:17.441Z,4.05
2018-01-16T11:01:51.210Z,3.20
2018-01-16T11:02:24.764Z,2.05
2018-01-16T11:02:58.283Z,2.05
2018-01-16T11:03:31.896Z,2.92
2018-01-16T11:04:06.233Z,2.25
2018-01-16T11:04:39.786Z,2.30
2018-01-16T11:05:13.388Z,2.42
2018-01-16T11:05:46.912Z,1.75
2018-01-16T11:06:20.440Z,2.65
2018-01-16T11:06:53.966Z,2.67
2018-01-16T11:07:27.692Z,2.37
2018-01-16T11:08:01.208Z,2.33
2018-01-16T11:08:34.733Z,2.22
2018-01-16T11:09:08.263Z,2.65
2018-01-16T11:09:41.844Z,2.35
2018-01-16T11:10:15.446Z,2.83
2018-01-16T11:11:12.802Z,2.45
2018-01-16T11:11:36.423Z,2.35
2018-01-16T11:12:00.033Z,2.33
2018-01-16T11:12:23.888Z,2.10
2018-01-16T11:12:47.119Z,2.15
2018-01-16T11:13:10.668Z,2.20
2018-01-16T11:13:34.205Z,2.30
2018-01-16T11:13:57.776Z,2.08
2018-01-16T11:14:21.502Z,2.20
2018-01-16T11:14:45.207Z,2.00
2018-01-16T11:15:08.832Z,1.90
2018-01-16T11:15:32.384Z,1.90
2018-01-16T11:15:55.906Z,1.87
2018-01-16T11:16:19.524Z,1.90
2018-01-16T11:16:42.765Z,1.90
2018-01-16T11:17:06.324Z,1.83
2018-01-16T11:17:29.906Z,1.73
2018-01-16T11:17:53.423Z,1.70
2018-01-16T11:18:17.273Z,1.60
2018-01-16T11:18:40.810Z,1.80
2018-01-16T11:19:04.368Z,1.75
2018-01-16T11:19:28.303Z,1.80
2018-01-16T11:19:51.604Z,1.60
2018-01-16T11:20:15.219Z,1.70
2018-01-16T11:20:38.495Z,1.80
2018-01-16T11:21:02.041Z,1.87
2018-01-16T11:21:25.667Z,1.73
2018-01-16T11:21:49.196Z,1.70
2018-01-16T11:22:13.019Z,1.70
2018-01-16T11:22:36.278Z,1.87
2018-01-16T11:22:59.797Z,1.80
2018-01-16T11:23:23.304Z,1.92
2018-01-16T11:23:46.931Z,1.90
2018-01-16T11:24:10.804Z,2.12
2018-01-16T11:24:34.419Z,2.00
2018-01-16T11:24:58.101Z,1.83
2018-01-16T11:25:21.654Z,1.60
2018-01-16T11:25:45.213Z,1.60
2018-01-16T11:26:08.738Z,1.70
2018-01-16T11:26:32.018Z,1.65
2018-01-16T11:26:55.592Z,1.55
2018-01-16T11:27:19.146Z,1.40
2018-01-16T11:27:42.667Z,1.50
2018-01-16T11:28:06.514Z,1.55
2018-01-16T11:28:30.119Z,1.60
2018-01-16T11:28:53.840Z,1.70
2018-01-16T11:29:17.414Z,1.60
2018-01-16T11:29:40.690Z,1.67
2018-01-16T11:30:04.222Z,1.70
2018-01-16T11:30:27.804Z,1.80
2018-01-16T11:30:51.408Z,1.50
2018-01-16T11:31:15.319Z,1.50
2018-01-16T11:31:39.152Z,1.50
2018-01-16T11:32:03.449Z,1.80
2018-01-16T11:32:26.979Z,2.15
2018-01-16T11:32:50.551Z,2.25
2018-01-16T11:33:14.087Z,2.00
2018-01-16T11:33:37.609Z,2.05
2018-01-16T11:34:01.164Z,1.95
2018-01-16T11:34:25.021Z,1.70
2018-01-16T11:34:48.279Z,1.70
2018-01-16T11:35:11.844Z,1.67
2018-01-16T11:35:35.370Z,1.70
2018-01-16T11:35:58.964Z,2.00
2018-01-16T11:36:22.936Z,1.92
2018-01-16T11:36:46.787Z,1.70
2018-01-16T11:37:10.041Z,1.70
2018-01-16T11:37:33.644Z,1.60
2018-01-16T11:37:57.168Z,1.83
2018-01-16T11:38:20.715Z,1.95
2018-01-16T11:38:43.984Z,2.10
2018-01-16T11:39:07.308Z,1.90
2018-01-16T11:39:30.881Z,1.80
2018-01-16T11:39:54.409Z,1.60
2018-01-16T11:40:17.964Z,1.80
2018-01-16T11:40:41.533Z,2.00
2018-01-16T11:41:04.792Z,2.08
2018-01-16T11:41:28.341Z,2.17
2018-01-16T11:41:51.882Z,2.30
2018-01-16T11:42:15.399Z,2.10
2018-01-16T11:42:39.215Z,1.80
2018-01-16T11:43:02.807Z,1.80
2018-01-16T11:43:26.355Z,1.87
2018-01-16T11:43:50.183Z,2.00
2018-01-16T11:44:13.739Z,1.95
2018-01-16T11:44:37.348Z,2.00
2018-01-16T11:45:00.937Z,2.00
2018-01-16T11:45:24.495Z,2.05
2018-01-16T11:45:48.030Z,2.20
2018-01-16T11:46:11.285Z,2.12
2018-01-16T11:46:34.838Z,1.90
2018-01-16T11:46:58.473Z,2.20
2018-01-16T11:47:22.017Z,2.30
2018-01-16T11:47:45.832Z,2.40
2018-01-16T11:48:09.391Z,2.17
2018-01-16T11:48:33.087Z,2.10
2018-01-16T11:48:56.646Z,2.08
2018-01-16T11:49:20.224Z,2.20
2018-01-16T11:49:43.600Z,2.30
2018-01-16T11:50:07.155Z,2.25
2018-01-16T11:50:30.764Z,2.20
2018-01-16T11:50:54.651Z,1.90
2018-01-16T11:51:18.190Z,1.80
2018-01-16T11:51:41.762Z,2.00
2018-01-16T11:52:05.629Z,2.12
2018-01-16T11:52:29.337Z,2.10
2018-01-16T11:52:52.904Z,1.80
2018-01-16T11:53:16.437Z,1.90
2018-01-16T11:53:39.956Z,2.37
2018-01-16T11:54:03.480Z,2.42
2018-01-16T11:54:26.720Z,2.42
2018-01-16T11:54:50.237Z,2.25
2018-01-16T11:55:13.809Z,2.60
2018-01-16T11:55:37.430Z,3.45
2018-01-16T11:56:01.270Z,3.60
2018-01-16T11:56:24.828Z,3.25
2018-01-16T11:56:48.352Z,2.70
2018-01-16T11:57:12.273Z,2.42
2018-01-16T11:57:36.149Z,2.30
2018-01-16T11:57:59.676Z,2.30
2018-01-16T11:58:23.218Z,2.50
2018-01-16T11:58:47.036Z,2.67
2018-01-16T11:59:10.591Z,3.10
2018-01-16T11:59:34.132Z,3.05
2018-01-16T11:59:57.363Z,2.83
2018-01-16T12:00:20.703Z,3.08
2018-01-16T12:00:44.211Z,3.05
2018-01-16T12:01:08.203Z,3.20
2018-01-16T12:01:31.778Z,2.90
2018-01-16T12:01:55.365Z,3.60
2018-01-16T12:02:19.285Z,3.30
2018-01-16T12:02:42.861Z,3.85
2018-01-16T12:03:06.754Z,3.30
2018-01-16T12:03:30.282Z,3.10
2018-01-16T12:03:53.620Z,2.53
2018-01-16T12:04:16.959Z,2.90
2018-01-16T12:04:40.406Z,3.10
2018-01-16T12:05:03.778Z,3.00
2018-01-16T12:05:27.417Z,2.75
2018-01-16T12:05:50.744Z,2.87
2018-01-16T12:06:14.415Z,3.10
2018-01-16T12:06:38.330Z,3.28
2018-01-16T12:07:01.735Z,2.97
2018-01-16T12:07:24.993Z,2.60
2018-01-16T12:07:48.381Z,2.40
2018-01-16T12:08:11.952Z,2.70
2018-01-16T12:08:35.505Z,3.05
2018-01-16T12:08:59.310Z,3.15
2018-01-16T12:09:22.992Z,3.10
2018-01-16T12:09:46.516Z,2.80
2018-01-16T12:10:10.331Z,3.03
2018-01-16T12:10:33.592Z,3.10
2018-01-16T12:10:57.150Z,3.22
2018-01-16T12:11:20.745Z,3.10
2018-01-16T12:11:44.322Z,2.72
2018-01-16T12:12:08.215Z,2.70
2018-01-16T12:12:31.475Z,3.10
2018-01-16T12:12:55.039Z,3.10
2018-01-16T12:13:18.618Z,2.80
2018-01-16T12:13:42.237Z,2.62
2018-01-16T12:14:06.140Z,2.80
2018-01-16T12:14:30.004Z,2.90
2018-01-16T12:14:53.607Z,2.70
2018-01-16T12:15:17.196Z,2.65
2018-01-16T12:15:40.716Z,2.90
2018-01-16T12:16:04.299Z,2.90
2018-01-16T12:16:28.036Z,3.08
2018-01-16T12:16:51.918Z,3.05
2018-01-16T12:17:15.197Z,3.00
2018-01-16T12:17:38.981Z,3.15
2018-01-16T12:18:02.804Z,3.05
2018-01-16T12:18:26.108Z,3.00
2018-01-16T12:18:49.681Z,2.60
2018-01-16T12:19:13.431Z,3.15
2018-01-16T12:19:37.049Z,3.58
2018-01-16T12:20:00.611Z,3.50
2018-01-16T12:20:23.968Z,3.22
2018-01-16T12:20:47.727Z,2.70
2018-01-16T12:21:13.143Z,2.60
2018-01-16T12:21:36.518Z,2.40
2018-01-16T12:21:59.855Z,2.65
2018-01-16T12:22:24.158Z,2.90
2018-01-16T12:22:47.690Z,3.00
2018-01-16T12:23:11.220Z,3.10
2018-01-16T12:23:34.798Z,3.20
2018-01-16T12:23:58.322Z,2.90
2018-01-16T12:24:21.926Z,2.80
2018-01-16T12:24:45.537Z,2.90
2018-01-16T12:25:09.287Z,3.10
2018-01-16T12:25:32.796Z,3.40
2018-01-16T12:26:01.209Z,3.22
2018-01-16T12:26:24.491Z,3.43
2018-01-16T12:26:48.099Z,3.45
2018-01-16T12:27:11.819Z,3.67
2018-01-16T12:27:36.181Z,3.30
2018-01-16T12:27:59.671Z,3.50
2018-01-16T12:28:23.485Z,3.90
2018-01-16T12:28:47.790Z,4.10
2018-01-16T12:29:11.369Z,3.72
2018-01-16T12:29:34.925Z,3.50
2018-01-16T12:29:58.759Z,3.53
2018-01-16T12:30:22.055Z,3.50
2018-01-16T12:30:45.290Z,3.47
2018-01-16T12:31:09.032Z,3.47
2018-01-16T12:31:32.635Z,3.40
2018-01-16T12:31:56.148Z,3.50
2018-01-16T12:32:19.814Z,4.00
2018-01-16T12:32:43.648Z,4.00
2018-01-16T12:33:07.175Z,3.55
2018-01-16T12:33:30.773Z,3.50
2018-01-16T12:33:54.688Z,3.58
2018-01-16T12:34:18.618Z,3.35
2018-01-16T12:34:41.879Z,3.72
2018-01-16T12:35:05.261Z,3.78
2018-01-16T12:35:28.838Z,3.45
2018-01-16T12:35:52.356Z,3.40
2018-01-16T12:36:15.899Z,3.40
2018-01-16T12:36:39.377Z,3.67
2018-01-16T12:37:02.983Z,3.45
2018-01-16T12:37:26.531Z,3.30
2018-01-16T12:37:50.378Z,3.40
2018-01-16T12:38:14.218Z,3.75
2018-01-16T12:38:37.739Z,3.75
2018-01-16T12:39:01.276Z,3.87
2018-01-16T12:39:24.572Z,3.53
2018-01-16T12:39:48.122Z,3.83
2018-01-16T12:40:11.642Z,3.70
2018-01-16T12:40:35.180Z,3.78
2018-01-16T12:41:28.762Z,3.83
2018-01-16T12:41:52.638Z,3.70
2018-01-16T12:42:16.658Z,3.67
2018-01-16T12:42:40.381Z,3.80
2018-01-16T12:43:03.911Z,3.70
2018-01-16T12:43:27.382Z,3.85
2018-01-16T12:43:51.179Z,4.12
2018-01-16T12:44:14.968Z,4.30
2018-01-16T12:44:39.586Z,3.90
2018-01-16T12:45:03.171Z,3.90
2018-01-16T12:45:26.980Z,3.60
2018-01-16T12:45:50.595Z,3.80
2018-01-16T12:46:14.167Z,4.10
2018-01-16T12:46:37.707Z,4.00
2018-01-16T12:47:01.544Z,3.75
2018-01-16T12:47:25.082Z,3.85
2018-01-16T12:47:48.628Z,4.05
2018-01-16T12:48:12.535Z,3.80
2018-01-16T12:48:35.851Z,3.47
2018-01-16T12:48:59.239Z,3.60
2018-01-16T12:49:22.807Z,3.90
2018-01-16T12:49:46.335Z,4.07
2018-01-16T12:50:09.855Z,4.45
2018-01-16T12:50:33.693Z,4.47
2018-01-16T12:50:57.225Z,4.35
2018-01-16T12:51:20.777Z,4.60
2018-01-16T12:51:44.317Z,4.50
2018-01-16T12:52:08.148Z,4.70
2018-01-16T12:52:31.691Z,4.30
2018-01-16T12:52:55.274Z,4.53
2018-01-16T12:53:19.116Z,4.20
2018-01-16T12:53:42.365Z,4.20
2018-01-16T12:54:05.928Z,4.32
2018-01-16T12:54:29.271Z,4.90
2018-01-16T12:54:52.909Z,5.00
2018-01-16T12:55:16.459Z,4.97
2018-01-16T12:55:40.123Z,4.70